createdAt,value
2023-03-24T00:01:17.444Z,99.90
2023-03-24T00:03:52.431Z,99.90
2023-03-24T00:06:22.732Z,99.90
2023-03-24T00:08:50.348Z,99.90
2023-03-24T00:11:19.510Z,99.90
2023-03-24T00:13:50.450Z,99.90
2023-03-24T00:16:19.593Z,99.90
2023-03-24T00:18:52.990Z,99.90
2023-03-24T00:21:25.182Z,99.90
2023-03-24T00:23:55.353Z,99.90
2023-03-24T00:26:25.266Z,99.90
2023-03-24T00:28:53.456Z,99.90
2023-03-24T00:31:20.744Z,99.90
2023-03-24T00:33:51.097Z,99.90
2023-03-24T00:36:22.127Z,99.90
2023-03-24T00:38:50.232Z,99.90
2023-03-24T00:41:20.166Z,99.90
2023-03-24T00:43:49.852Z,99.90
2023-03-24T00:46:27.703Z,99.90
2023-03-24T00:49:02.629Z,99.90
2023-03-24T00:51:39.588Z,99.90
2023-03-24T00:54:09.285Z,99.90
2023-03-24T00:56:40.798Z,99.90
2023-03-24T00:59:10.230Z,99.90
2023-03-24T01:01:40.975Z,99.90
2023-03-24T01:04:08.711Z,99.90
2023-03-24T01:06:40.022Z,99.90
2023-03-24T01:09:07.889Z,99.90
2023-03-24T01:11:40.047Z,99.90
2023-03-24T01:14:09.768Z,99.90
2023-03-24T01:16:37.472Z,99.90
2023-03-24T01:19:05.372Z,99.90
2023-03-24T01:21:35.261Z,99.90
2023-03-24T01:24:03.377Z,99.90
2023-03-24T01:26:31.213Z,99.90
2023-03-24T01:28:58.463Z,99.90
2023-03-24T01:31:26.223Z,99.90
2023-03-24T01:33:53.396Z,99.90
2023-03-24T01:36:20.550Z,99.90
2023-03-24T01:38:47.677Z,99.90
2023-03-24T01:41:14.863Z,99.90
2023-03-24T01:43:43.448Z,99.90
2023-03-24T01:46:22.470Z,99.90
2023-03-24T01:49:06.365Z,99.90
2023-03-24T01:51:39.245Z,99.90
2023-03-24T01:54:18.952Z,99.90
2023-03-24T01:56:55.581Z,99.90
2023-03-24T01:59:29.268Z,99.90
2023-03-24T02:02:03.431Z,99.90
2023-03-24T02:04:38.818Z,99.90
2023-03-24T02:07:16.072Z,99.90
2023-03-24T02:09:43.222Z,99.90
2023-03-24T02:12:10.539Z,99.90
2023-03-24T02:14:37.886Z,99.90
2023-03-24T02:17:23.435Z,99.90
2023-03-24T02:20:49.205Z,99.90
2023-03-24T02:23:50.125Z,99.90
2023-03-24T02:26:35.183Z,99.90
2023-03-24T02:29:23.561Z,99.90
2023-03-24T02:32:30.784Z,99.90
2023-03-24T02:35:45.464Z,99.90
2023-03-24T02:39:18.044Z,99.90
2023-03-24T02:42:31.496Z,99.90
2023-03-24T02:45:35.866Z,99.90
2023-03-24T02:48:42.961Z,99.90
2023-03-24T02:51:18.603Z,99.90
2023-03-24T02:54:32.272Z,99.90
2023-03-24T02:57:36.202Z,99.90
2023-03-24T03:00:20.091Z,99.90
2023-03-24T03:03:14.296Z,99.90
2023-03-24T03:05:59.435Z,99.90
2023-03-24T03:08:32.499Z,99.90
2023-03-24T03:11:02.308Z,99.90
2023-03-24T03:13:39.325Z,99.90
2023-03-24T03:16:25.409Z,99.90
2023-03-24T03:18:58.172Z,99.90
2023-03-24T03:21:29.593Z,99.90
2023-03-24T03:24:02.424Z,99.90
2023-03-24T03:26:33.119Z,99.90
2023-03-24T03:29:09.459Z,99.90
2023-03-24T03:31:50.969Z,99.90
2023-03-24T03:34:42.263Z,99.90
2023-03-24T03:37:56.160Z,99.90
2023-03-24T03:40:59.447Z,99.90
2023-03-24T03:43:27.997Z,99.90
2023-03-24T03:45:56.125Z,99.90
2023-03-24T03:48:26.470Z,99.90
2023-03-24T03:51:10.327Z,99.90
2023-03-24T03:54:04.031Z,99.90
2023-03-24T03:56:34.208Z,99.90
2023-03-24T03:59:04.147Z,99.90
2023-03-24T04:01:37.308Z,99.90
2023-03-24T04:04:04.502Z,99.90
2023-03-24T04:07:15.061Z,99.90
2023-03-24T04:10:19.398Z,99.90
2023-03-24T04:13:01.200Z,99.90
2023-03-24T04:15:54.426Z,99.90
2023-03-24T04:18:33.756Z,99.90
2023-03-24T04:21:28.635Z,99.90
2023-03-24T04:24:27.539Z,99.90
2023-03-24T04:27:22.133Z,99.90
2023-03-24T04:30:16.463Z,99.90
2023-03-24T04:33:06.708Z,99.90
2023-03-24T04:35:44.718Z,99.90
2023-03-24T04:38:23.136Z,99.90
2023-03-24T04:40:55.623Z,99.90
2023-03-24T04:43:29.132Z,99.90
2023-03-24T04:45:58.014Z,99.90
2023-03-24T04:48:26.267Z,99.90
2023-03-24T04:51:03.746Z,99.90
2023-03-24T04:53:31.045Z,99.90
2023-03-24T04:56:12.950Z,99.90
2023-03-24T04:58:40.135Z,99.90
2023-03-24T05:01:09.155Z,99.90
2023-03-24T05:03:38.217Z,99.90
2023-03-24T05:06:05.959Z,99.90
2023-03-24T05:08:33.387Z,99.90
2023-03-24T05:11:00.551Z,99.90
2023-03-24T05:13:27.651Z,99.90
2023-03-24T05:15:55.064Z,99.90
2023-03-24T05:18:22.282Z,99.90
2023-03-24T05:20:49.548Z,99.90
2023-03-24T05:23:17.106Z,99.90
2023-03-24T05:25:46.859Z,99.90
2023-03-24T05:28:14.166Z,99.90
2023-03-24T05:30:41.432Z,99.90
2023-03-24T05:33:08.645Z,99.90
2023-03-24T05:35:36.031Z,99.90
2023-03-24T05:38:03.144Z,99.90
2023-03-24T05:40:30.260Z,99.90
2023-03-24T05:42:57.400Z,99.90
2023-03-24T05:45:25.454Z,99.90
2023-03-24T05:47:52.693Z,99.90
2023-03-24T05:50:21.149Z,99.90
2023-03-24T05:52:48.240Z,99.90
2023-03-24T05:55:16.136Z,99.90
2023-03-24T05:57:43.583Z,99.90
2023-03-24T06:00:16.822Z,99.90
2023-03-24T06:02:46.485Z,99.90
2023-03-24T06:05:14.086Z,99.90
2023-03-24T06:07:44.539Z,99.90
2023-03-24T06:10:14.427Z,99.90
2023-03-24T06:12:42.781Z,99.90
2023-03-24T06:15:10.994Z,99.90
2023-03-24T06:17:38.445Z,99.90
2023-03-24T06:20:13.971Z,99.90
2023-03-24T06:22:42.651Z,99.90
2023-03-24T06:25:11.627Z,99.90
2023-03-24T06:27:42.569Z,99.90
2023-03-24T06:30:10.785Z,99.90
2023-03-24T06:32:38.497Z,99.90
2023-03-24T06:35:07.329Z,99.90
2023-03-24T06:37:34.437Z,99.90
2023-03-24T06:40:01.714Z,99.90
2023-03-24T06:42:28.869Z,99.90
2023-03-24T06:44:55.929Z,99.90
2023-03-24T06:47:23.104Z,99.90
2023-03-24T06:49:50.360Z,99.90
2023-03-24T06:52:17.432Z,99.90
2023-03-24T06:54:44.592Z,99.90
2023-03-24T06:57:11.962Z,99.90
2023-03-24T06:59:39.121Z,99.90
2023-03-24T07:02:06.548Z,99.90
2023-03-24T07:04:36.602Z,99.90
2023-03-24T07:07:19.574Z,99.90
2023-03-24T07:09:51.128Z,99.90
2023-03-24T07:12:18.309Z,99.90
2023-03-24T07:14:45.423Z,99.90
2023-03-24T07:17:12.561Z,99.90
2023-03-24T07:19:39.805Z,99.90
2023-03-24T07:22:08.408Z,99.90
2023-03-24T07:24:36.058Z,99.90
2023-03-24T07:27:04.035Z,99.90
2023-03-24T07:29:31.239Z,99.90
2023-03-24T07:31:58.918Z,99.90
2023-03-24T07:34:26.273Z,99.90
2023-03-24T07:36:53.467Z,99.90
2023-03-24T07:39:21.324Z,99.90
2023-03-24T07:41:48.441Z,99.90
2023-03-24T07:44:15.851Z,99.90
2023-03-24T07:46:43.208Z,99.90
2023-03-24T07:49:19.021Z,99.90
2023-03-24T07:51:47.154Z,99.90
2023-03-24T07:54:14.520Z,99.90
2023-03-24T07:56:42.102Z,99.90
2023-03-24T07:59:09.870Z,99.90
2023-03-24T08:01:38.576Z,99.90
2023-03-24T08:04:06.784Z,99.90
2023-03-24T08:06:34.868Z,99.90
2023-03-24T08:09:02.051Z,99.90
2023-03-24T08:11:29.204Z,99.90
2023-03-24T08:13:56.571Z,99.90
2023-03-24T08:16:24.834Z,99.90
2023-03-24T08:18:52.499Z,99.90
2023-03-24T08:21:19.674Z,99.90
2023-03-24T08:23:46.766Z,99.90
2023-03-24T08:26:13.859Z,99.90
2023-03-24T08:28:41.643Z,99.90
2023-03-24T08:31:09.144Z,99.90
2023-03-24T08:33:37.370Z,99.90
2023-03-24T08:36:06.714Z,99.90
2023-03-24T08:38:34.088Z,99.90
2023-03-24T08:41:06.941Z,99.90
2023-03-24T08:43:37.497Z,99.90
2023-03-24T08:46:10.561Z,99.90
2023-03-24T08:48:41.168Z,99.90
2023-03-24T08:51:17.523Z,99.90
2023-03-24T08:53:44.705Z,99.90
2023-03-24T08:56:12.038Z,99.20
2023-03-24T08:58:39.250Z,98.80
2023-03-24T09:01:07.681Z,98.60
2023-03-24T09:03:36.024Z,98.80
2023-03-24T09:06:03.296Z,97.70
2023-03-24T09:08:30.658Z,97.40
2023-03-24T09:11:00.800Z,98.20
2023-03-24T09:13:28.255Z,97.80
2023-03-24T09:16:02.301Z,97.80
2023-03-24T09:18:30.700Z,97.90
2023-03-24T09:20:57.850Z,96.10
2023-03-24T09:23:25.515Z,95.80
2023-03-24T09:25:56.719Z,96.40
2023-03-24T09:28:24.071Z,95.40
2023-03-24T09:30:56.215Z,95.00
2023-03-24T09:33:24.156Z,94.60
2023-03-24T09:36:00.381Z,94.60
2023-03-24T09:38:28.707Z,94.80
2023-03-24T09:41:01.573Z,94.80
2023-03-24T09:43:42.498Z,94.00
2023-03-24T09:46:23.927Z,92.80
2023-03-24T09:48:56.319Z,93.20
2023-03-24T09:51:32.701Z,92.40
2023-03-24T09:54:11.855Z,92.30
2023-03-24T09:56:45.023Z,92.30
2023-03-24T09:59:29.669Z,91.70
2023-03-24T10:01:57.939Z,90.80
2023-03-24T10:04:28.692Z,90.70
2023-03-24T10:07:26.768Z,91.00
2023-03-24T10:09:59.459Z,90.90
2023-03-24T10:12:39.453Z,91.10
2023-03-24T10:15:52.430Z,90.30
2023-03-24T10:18:53.884Z,90.50
2023-03-24T10:21:26.197Z,89.30
2023-03-24T10:24:30.081Z,87.80
2023-03-24T10:27:34.266Z,90.30
2023-03-24T10:30:12.336Z,89.50
2023-03-24T10:32:42.962Z,87.50
2023-03-24T10:35:43.787Z,87.20
2023-03-24T10:38:21.474Z,85.20
2023-03-24T10:40:49.595Z,83.50
2023-03-24T10:43:18.991Z,83.10
2023-03-24T10:45:52.042Z,85.30
2023-03-24T10:48:40.565Z,85.60
2023-03-24T10:51:20.008Z,83.80
2023-03-24T10:53:48.932Z,83.90
2023-03-24T10:56:38.417Z,83.40
2023-03-24T10:59:27.716Z,85.00
2023-03-24T11:02:23.890Z,81.70
2023-03-24T11:05:14.275Z,81.60
2023-03-24T11:07:48.953Z,82.40
2023-03-24T11:10:24.543Z,81.20
2023-03-24T11:13:33.103Z,79.20
2023-03-24T11:16:17.177Z,79.20
2023-03-24T11:19:19.273Z,78.00
2023-03-24T11:21:51.399Z,78.90
2023-03-24T11:24:20.982Z,76.80
2023-03-24T11:27:02.195Z,77.40
2023-03-24T11:29:33.934Z,79.10
2023-03-24T11:32:07.774Z,79.50
2023-03-24T11:34:42.414Z,77.40
2023-03-24T11:37:18.433Z,78.30
2023-03-24T11:40:07.181Z,77.80
2023-03-24T11:42:34.286Z,77.30
2023-03-24T11:45:03.875Z,75.80
2023-03-24T11:47:38.908Z,74.60
2023-03-24T11:50:11.897Z,74.00
2023-03-24T11:53:02.440Z,73.80
2023-03-24T11:55:53.629Z,74.80
2023-03-24T11:58:35.583Z,72.80
2023-03-24T12:01:21.252Z,73.00
2023-03-24T12:04:15.536Z,73.80
2023-03-24T12:07:28.608Z,70.50
2023-03-24T12:10:21.377Z,72.10
2023-03-24T12:13:29.959Z,71.70
2023-03-24T12:16:34.897Z,71.60
2023-03-24T12:19:51.772Z,72.50
2023-03-24T12:23:08.621Z,70.00
2023-03-24T12:25:54.695Z,68.80
2023-03-24T12:28:36.260Z,68.60
2023-03-24T12:31:30.382Z,67.50
2023-03-24T12:34:48.095Z,67.90
2023-03-24T12:37:31.905Z,68.70
2023-03-24T12:40:41.287Z,67.30
2023-03-24T12:43:45.455Z,68.20
2023-03-24T12:46:50.943Z,67.70
2023-03-24T12:49:27.022Z,69.60
2023-03-24T12:52:15.072Z,68.60
2023-03-24T12:54:55.806Z,67.70
2023-03-24T12:57:28.466Z,68.00
2023-03-24T13:00:22.582Z,69.90
2023-03-24T13:03:06.709Z,69.20
2023-03-24T13:05:43.216Z,68.40
2023-03-24T13:08:23.068Z,70.40
2023-03-24T13:10:54.564Z,70.50
2023-03-24T13:13:32.962Z,70.80
2023-03-24T13:16:30.939Z,71.40
2023-03-24T13:19:00.520Z,71.10
2023-03-24T13:21:29.718Z,69.50
2023-03-24T13:24:05.459Z,69.60
2023-03-24T13:27:01.159Z,70.50
2023-03-24T13:29:52.778Z,70.10
2023-03-24T13:32:36.268Z,70.30
2023-03-24T13:35:18.795Z,71.40
2023-03-24T13:38:00.685Z,69.60
2023-03-24T13:40:32.761Z,69.40
2023-03-24T13:43:18.220Z,69.60
2023-03-24T13:46:00.903Z,70.50
2023-03-24T13:48:44.212Z,71.60
2023-03-24T13:51:18.251Z,70.90
2023-03-24T13:54:13.836Z,72.00
2023-03-24T13:56:52.688Z,71.50
2023-03-24T14:00:07.951Z,70.60
2023-03-24T14:02:51.284Z,70.70
2023-03-24T14:06:04.640Z,69.80
2023-03-24T14:08:43.962Z,69.50
2023-03-24T14:11:49.513Z,68.90
2023-03-24T14:14:18.310Z,69.90
2023-03-24T14:17:06.748Z,71.40
2023-03-24T14:20:02.076Z,71.30
2023-03-24T14:22:35.367Z,69.70
2023-03-24T14:25:17.338Z,69.70
2023-03-24T14:28:07.694Z,70.90
2023-03-24T14:30:38.170Z,71.20
2023-03-24T14:33:06.737Z,71.40
2023-03-24T14:35:37.251Z,71.40
2023-03-24T14:38:27.208Z,71.60
2023-03-24T14:41:06.146Z,70.70
2023-03-24T14:43:42.011Z,70.90
2023-03-24T14:46:21.089Z,72.10
2023-03-24T14:49:33.665Z,71.80
2023-03-24T14:52:12.331Z,72.90
2023-03-24T14:55:20.424Z,72.90
2023-03-24T14:58:02.541Z,73.00
2023-03-24T15:00:57.977Z,72.80
2023-03-24T15:04:11.269Z,73.40
2023-03-24T15:06:47.333Z,74.20
2023-03-24T15:09:18.133Z,74.60
2023-03-24T15:11:48.279Z,75.20
2023-03-24T15:14:26.525Z,75.60
2023-03-24T15:17:16.354Z,74.20
2023-03-24T15:19:43.783Z,73.50
2023-03-24T15:22:13.826Z,74.60
2023-03-24T15:24:48.426Z,75.30
2023-03-24T15:27:23.505Z,76.50
2023-03-24T15:29:59.469Z,77.70
2023-03-24T15:32:31.615Z,78.40
2023-03-24T15:35:05.710Z,79.90
2023-03-24T15:37:40.610Z,81.00
2023-03-24T15:40:31.087Z,82.90
2023-03-24T15:43:02.442Z,83.50
2023-03-24T15:45:33.976Z,85.20
2023-03-24T15:48:24.743Z,87.60
2023-03-24T15:51:11.752Z,90.50
2023-03-24T15:53:58.147Z,90.90
2023-03-24T15:56:26.502Z,91.60
2023-03-24T15:59:07.094Z,94.00
2023-03-24T16:01:36.339Z,96.50
2023-03-24T16:06:48.698Z,99.90
2023-03-24T16:09:21.767Z,99.90
2023-03-24T16:11:49.636Z,99.90
2023-03-24T16:14:24.343Z,99.90
2023-03-24T16:16:57.011Z,99.90
2023-03-24T16:19:25.223Z,99.90
2023-03-24T16:21:52.544Z,99.90
2023-03-24T16:24:19.699Z,99.90
2023-03-24T16:26:46.952Z,99.90
2023-03-24T16:29:14.313Z,99.90
2023-03-24T16:31:41.496Z,99.90
2023-03-24T16:34:08.802Z,99.90
2023-03-24T16:36:36.424Z,99.90
2023-03-24T16:39:13.117Z,99.90
2023-03-24T16:41:40.627Z,99.90
2023-03-24T16:44:08.060Z,99.90
2023-03-24T16:46:36.471Z,99.90
2023-03-24T16:49:07.233Z,99.90
2023-03-24T16:51:35.253Z,99.90
2023-03-24T16:54:03.718Z,99.90
2023-03-24T16:56:31.394Z,99.90
2023-03-24T16:58:59.289Z,99.90
2023-03-24T17:01:39.875Z,99.90
2023-03-24T17:04:13.206Z,99.90
2023-03-24T17:06:49.328Z,99.90
2023-03-24T17:09:18.597Z,99.90
2023-03-24T17:11:57.671Z,99.90
2023-03-24T17:14:25.346Z,99.90
2023-03-24T17:16:53.872Z,99.90
2023-03-24T17:19:24.608Z,99.90
2023-03-24T17:22:03.830Z,99.90
2023-03-24T17:24:36.186Z,99.90
2023-03-24T17:27:16.864Z,99.90
2023-03-24T17:29:46.370Z,99.90
2023-03-24T17:32:14.031Z,99.90
2023-03-24T17:34:46.700Z,99.90
2023-03-24T17:37:14.518Z,99.90
2023-03-24T17:39:42.161Z,99.90
2023-03-24T17:42:10.177Z,99.90
2023-03-24T17:44:39.652Z,99.90
2023-03-24T17:47:07.622Z,99.90
2023-03-24T17:49:35.646Z,99.90
2023-03-24T17:52:03.745Z,99.90
2023-03-24T17:54:33.093Z,99.90
2023-03-24T17:57:05.351Z,99.90
2023-03-24T17:59:34.019Z,99.90
2023-03-24T18:02:03.086Z,99.90
2023-03-24T18:04:33.428Z,99.90
2023-03-24T18:07:02.668Z,99.90
2023-03-24T18:09:35.066Z,99.90
2023-03-24T18:12:03.167Z,99.90
2023-03-24T18:14:32.432Z,99.90
2023-03-24T18:17:04.885Z,99.90
2023-03-24T18:19:33.120Z,99.90
2023-03-24T18:22:01.307Z,99.90
2023-03-24T18:24:32.738Z,99.90
2023-03-24T18:27:04.113Z,99.90
2023-03-24T18:29:33.964Z,99.90
2023-03-24T18:32:02.521Z,99.90
2023-03-24T18:34:30.985Z,99.90
2023-03-24T18:37:00.051Z,99.90
2023-03-24T18:39:28.714Z,99.90
2023-03-24T18:41:57.323Z,99.90
2023-03-24T18:44:26.066Z,99.90
2023-03-24T18:46:55.607Z,99.90
2023-03-24T18:49:24.348Z,99.90
2023-03-24T18:51:54.744Z,99.90
2023-03-24T18:54:26.898Z,99.90
2023-03-24T18:56:58.362Z,99.90
2023-03-24T18:59:29.274Z,99.90
2023-03-24T19:02:00.827Z,99.90
2023-03-24T19:04:29.184Z,99.90
2023-03-24T19:06:58.685Z,99.90
2023-03-24T19:09:29.554Z,99.90
2023-03-24T19:11:58.313Z,99.90
2023-03-24T19:14:28.457Z,99.90
2023-03-24T19:17:00.133Z,99.90
2023-03-24T19:19:33.051Z,99.90
2023-03-24T19:22:02.240Z,99.90
2023-03-24T19:24:31.656Z,99.90
2023-03-24T19:27:01.558Z,99.90
2023-03-24T19:29:31.639Z,99.90
2023-03-24T19:32:01.775Z,99.90
2023-03-24T19:34:31.049Z,99.90
2023-03-24T19:36:59.329Z,99.90
2023-03-24T19:39:28.701Z,99.90
2023-03-24T19:41:58.402Z,99.90
2023-03-24T19:44:26.676Z,99.90
2023-03-24T19:46:55.134Z,99.90
2023-03-24T19:49:23.770Z,99.90
2023-03-24T19:51:53.157Z,99.90
2023-03-24T19:54:22.935Z,99.90
2023-03-24T19:56:51.850Z,99.90
2023-03-24T19:59:20.483Z,99.90
2023-03-24T20:01:49.240Z,99.90
2023-03-24T20:04:25.140Z,99.90
2023-03-24T20:06:55.421Z,99.90
2023-03-24T20:09:23.863Z,99.90
2023-03-24T20:11:54.214Z,99.90
2023-03-24T20:14:22.948Z,99.90
2023-03-24T20:16:50.863Z,99.90
2023-03-24T20:19:20.603Z,99.90
2023-03-24T20:21:49.606Z,99.90
2023-03-24T20:24:20.243Z,99.90
2023-03-24T20:26:52.057Z,99.90
2023-03-24T20:29:20.654Z,99.90
2023-03-24T20:31:50.783Z,99.90
2023-03-24T20:34:22.416Z,99.90
2023-03-24T20:36:53.733Z,99.90
2023-03-24T20:39:27.857Z,99.90
2023-03-24T20:41:56.963Z,99.90
2023-03-24T20:44:26.063Z,99.90
2023-03-24T20:46:57.827Z,99.90
2023-03-24T20:49:28.058Z,99.90
2023-03-24T20:51:57.083Z,99.90
2023-03-24T20:54:25.597Z,99.90
2023-03-24T20:56:54.321Z,99.90
2023-03-24T20:59:23.182Z,99.90
2023-03-24T21:01:51.709Z,99.90
2023-03-24T21:04:20.424Z,99.90
2023-03-24T21:06:48.373Z,99.90
2023-03-24T21:09:17.401Z,99.90
2023-03-24T21:11:45.876Z,99.90
2023-03-24T21:14:14.242Z,99.90
2023-03-24T21:16:42.685Z,99.90
2023-03-24T21:19:13.448Z,99.90
2023-03-24T21:21:42.992Z,99.90
2023-03-24T21:24:13.554Z,99.90
2023-03-24T21:26:41.756Z,99.90
2023-03-24T21:29:12.420Z,99.90
2023-03-24T21:31:41.911Z,99.90
2023-03-24T21:34:09.792Z,99.90
2023-03-24T21:36:38.590Z,99.90
2023-03-24T21:39:12.096Z,99.90
2023-03-24T21:41:39.807Z,99.90
2023-03-24T21:44:09.521Z,99.90
2023-03-24T21:46:37.190Z,99.90
2023-03-24T21:49:05.376Z,99.90
2023-03-24T21:51:34.648Z,99.90
2023-03-24T21:54:04.648Z,99.90
2023-03-24T21:56:33.961Z,99.90
2023-03-24T21:59:01.594Z,99.90
2023-03-24T22:01:29.407Z,99.90
2023-03-24T22:03:58.901Z,99.90
2023-03-24T22:06:29.066Z,99.90
2023-03-24T22:08:58.571Z,99.90
2023-03-24T22:11:26.377Z,99.90
2023-03-24T22:13:53.873Z,99.90
2023-03-24T22:16:21.110Z,99.90
2023-03-24T22:18:48.288Z,99.90
2023-03-24T22:21:15.458Z,99.90
2023-03-24T22:23:43.033Z,99.90
2023-03-24T22:26:14.810Z,99.90
2023-03-24T22:28:42.615Z,99.90
2023-03-24T22:31:16.748Z,99.90
2023-03-24T22:33:44.500Z,99.90
2023-03-24T22:36:12.410Z,99.90
2023-03-24T22:38:40.004Z,99.90
2023-03-24T22:41:11.624Z,99.90
2023-03-24T22:43:41.873Z,99.90
2023-03-24T22:46:10.788Z,99.90
2023-03-24T22:48:41.189Z,99.90
2023-03-24T22:51:09.483Z,99.90
2023-03-24T22:53:36.742Z,99.90
2023-03-24T22:56:06.235Z,99.90
2023-03-24T22:58:35.095Z,99.90
2023-03-24T23:01:03.715Z,99.90
2023-03-24T23:03:30.936Z,99.90
2023-03-24T23:06:03.744Z,99.90
2023-03-24T23:08:35.126Z,99.90
2023-03-24T23:11:02.290Z,99.90
2023-03-24T23:13:30.825Z,99.90
2023-03-24T23:15:58.285Z,99.90
2023-03-24T23:18:25.480Z,99.90
2023-03-24T23:21:07.265Z,99.90
2023-03-24T23:23:35.967Z,99.90
2023-03-24T23:26:05.571Z,99.90
2023-03-24T23:28:35.444Z,99.90
2023-03-24T23:31:02.652Z,99.90
2023-03-24T23:33:29.870Z,99.90
2023-03-24T23:35:58.720Z,99.90
2023-03-24T23:38:26.531Z,99.90
2023-03-24T23:40:53.610Z,99.90
2023-03-24T23:43:21.338Z,99.90
2023-03-24T23:45:48.596Z,99.90
2023-03-24T23:48:15.999Z,99.90
2023-03-24T23:50:46.314Z,99.90
2023-03-24T23:53:13.379Z,99.90
2023-03-24T23:55:41.881Z,99.90
2023-03-24T23:58:09.009Z,99.90
